Wausau, WI (54401)

10:09 AM CDT on July 30, 2014 (GMT -0500)
Hawthorn Hills Elementary School (KWIWAUSA4) Elev 1201 ft | 44.96 °N, 89.61 °W | Change Station

Current weather conditions updated 13 seconds ago

Overcast
Overcast
63.3 °F
Feels Like 63.3 °F
N
1.0
Wind Variable Wind from WNW
Gusts 5.0 mph

Today is forecast to be Cooler than yesterday. Thunderstorms likely early tonight.

Today
High -- | Low -- °F
--% Chance of Precip.
Yesterday
High -- | Low -- °F
Precip. -- in
5:41 AM 8:27 PM
Waxing Crescent, 12% visible
Pressure 30.08 in
Visibility 10.0 miles
Clouds Clear
Dew Point 56 °F
Humidity 78%
Rainfall 0.00 in
Snow Depth Not available.
UV 6 out of 12
Pollen 7.30 out of 12
Air Quality Not available.
Flu Activity Not available.
METAR KAUW 301454Z AUTO VRB05KT 10SM -RA CLR 18/12 A3006 RMK AO2 RAB44 SLP184 P0000 60000 T01780122 58002

More Conditions Fewer Conditions

Pressure 30.08 in
Visibility 10.0 miles
Clouds Clear
Dew Point 56 °F
Humidity 78%
Rainfall 0.00 in
Snow Depth Not available.
UV 6 out of 12
Pollen 7.30 out of 12
Air Quality Not available.
Flu Activity Not available.
METAR KAUW 301454Z AUTO VRB05KT 10SM -RA CLR 18/12 A3006 RMK AO2 RAB44 SLP184 P0000 60000 T01780122 58002

More Conditions Fewer Conditions

10-Day Weather Forecast

Almanac

Astronomy

Jul. 30, 2014 Rise Set
Actual Time 5:41 AM CDT 8:27 PM CDT
Civil Twilight 5:07 AM CDT 9:01 PM CDT
Nautical Twilight 4:24 AM CDT 9:44 PM CDT
Astronomical Twilight 3:34 AM CDT 10:33 PM CDT
Moon 9:25 AM CDT 9:57 PM CDT
Length of Visible Light 15h 53m
Length of Day
14h 45m
Tomorrow will be 2m 20s shorter.
Waxing Crescent, 12% of the Moon is Illuminated
Today
Waxing Crescent
Aug 3
First Quarter
Aug 10
Full
Aug 17
Last Quarter
Aug 25
New

Today's Extremes

State Highs State Lows

Community

WunderPhotos

Upload Photos

1,739,107 photos uploaded!

WunderBlogs® & News

By Dr. Jeff Masters
Director of Meteorology, Weather Underground
By Kari Strenfel
Meteorologist, Weather Underground
By Christopher C. Burt
Weather Historian, Weather Underground
July 30, 2014
July 30, 2014
July 30, 2014

Nearby

Snow Depth

Station Depth Elevation
No new snow has been reported.

Earthquake Activity

City Distance Mag. Time & Date
No recent earthquake activity has been reported nearby.
Minimum magnitude displayed is 2.5.

Coastal Water Temperatures

Place Temperature
No Stations Reporting

Nearby Weather Stations

Station Location Temp. Dew Point Humidity Wind Precip. Elev Updated Type
Hawthorn Hills Elementary School, Wausau, WI 63.3 °F 56 °F 78% WNW  at  1.0 mph 0.00 in / hr 1201 ft 10:09 AM CDT Rapid Fire
6 White Pillars, Wausau, WI 62.1 °F 58 °F 87% NNE  at  3.0 mph 0.00 in / hr 1381 ft 10:08 AM CDT Normal
Rib Falls Repair, Athens, WI 60.1 °F 58 °F 93% NNW  at  0.0 mph 0.00 in / hr 1348 ft 10:09 AM CDT Normal

Show More Stations Show Fewer Stations